createdAt,value
2023-04-04T00:00:35.340Z,0.85
2023-04-04T00:03:02.574Z,0.68
2023-04-04T00:05:30.647Z,0.60
2023-04-04T00:08:00.122Z,0.60
2023-04-04T00:10:27.426Z,0.65
2023-04-04T00:12:54.631Z,0.70
2023-04-04T00:15:22.243Z,0.70
2023-04-04T00:17:49.611Z,0.95
2023-04-04T00:20:17.132Z,0.60
2023-04-04T00:22:44.339Z,0.70
2023-04-04T00:25:12.237Z,0.60
2023-04-04T00:27:39.415Z,0.70
2023-04-04T00:30:07.192Z,0.60
2023-04-04T00:32:34.446Z,0.60
2023-04-04T00:35:01.645Z,0.60
2023-04-04T00:37:29.076Z,0.50
2023-04-04T00:39:56.440Z,0.50
2023-04-04T00:42:23.741Z,0.60
2023-04-04T00:44:52.343Z,0.63
2023-04-04T00:47:20.462Z,0.75
2023-04-04T00:49:47.644Z,0.60
2023-04-04T00:52:14.825Z,0.70
2023-04-04T00:54:42.040Z,0.60
2023-04-04T00:57:09.679Z,0.50
2023-04-04T00:59:37.499Z,0.60
2023-04-04T01:02:04.865Z,0.80
2023-04-04T01:04:32.129Z,0.55
2023-04-04T01:07:00.480Z,0.47
2023-04-04T01:09:27.758Z,0.50
2023-04-04T01:11:55.798Z,1.08
2023-04-04T01:14:23.213Z,0.60
2023-04-04T01:16:51.655Z,0.40
2023-04-04T01:19:37.961Z,0.43
2023-04-04T01:22:05.560Z,0.40
2023-04-04T01:24:36.820Z,0.50
2023-04-04T01:27:03.968Z,0.40
2023-04-04T01:29:31.222Z,0.45
2023-04-04T01:32:04.943Z,0.43
2023-04-04T01:34:32.572Z,0.32
2023-04-04T01:36:59.730Z,0.40
2023-04-04T01:39:35.730Z,0.50
2023-04-04T01:42:04.035Z,0.30
2023-04-04T01:44:31.464Z,0.30
2023-04-04T01:46:58.714Z,0.55
2023-04-04T01:49:25.892Z,0.38
2023-04-04T01:51:53.572Z,0.43
2023-04-04T01:54:20.789Z,0.40
2023-04-04T01:56:47.963Z,0.43
2023-04-04T01:59:15.221Z,0.30
2023-04-04T02:01:43.694Z,0.50
2023-04-04T02:04:12.726Z,0.40
2023-04-04T02:06:40.495Z,0.52
2023-04-04T02:09:07.723Z,0.50
2023-04-04T02:11:34.891Z,0.40
2023-04-04T02:14:02.071Z,0.55
2023-04-04T02:16:29.226Z,0.40
2023-04-04T02:18:55.982Z,0.35
2023-04-04T02:21:22.820Z,0.47
2023-04-04T02:23:49.584Z,0.30
2023-04-04T02:26:16.478Z,0.40
2023-04-04T02:28:43.281Z,0.47
2023-04-04T02:31:10.094Z,0.50
2023-04-04T02:33:36.941Z,0.40
2023-04-04T02:36:04.123Z,0.50
2023-04-04T02:38:30.914Z,0.40
2023-04-04T02:40:57.637Z,0.47
2023-04-04T02:43:24.380Z,0.40
2023-04-04T02:45:51.467Z,0.38
2023-04-04T02:48:18.199Z,0.50
2023-04-04T02:50:47.497Z,0.60
2023-04-04T02:53:14.293Z,0.50
2023-04-04T02:55:41.097Z,0.45
2023-04-04T02:58:07.952Z,0.60
2023-04-04T03:00:34.708Z,0.47
2023-04-04T03:03:01.801Z,0.63
2023-04-04T03:05:30.556Z,0.40
2023-04-04T03:07:58.328Z,0.50
2023-04-04T03:10:27.080Z,0.43
2023-04-04T03:12:53.883Z,0.40
2023-04-04T03:15:21.527Z,0.30
2023-04-04T03:17:48.726Z,0.50
2023-04-04T03:20:16.323Z,0.40
2023-04-04T03:22:43.074Z,0.50
2023-04-04T03:25:10.366Z,0.70
2023-04-04T03:27:37.224Z,0.40
2023-04-04T03:30:05.322Z,0.40
2023-04-04T03:32:32.467Z,0.40
2023-04-04T03:34:59.272Z,0.40
2023-04-04T03:37:26.048Z,0.22
2023-04-04T03:39:52.855Z,0.50
2023-04-04T03:42:19.624Z,0.50
2023-04-04T03:44:46.380Z,0.40
2023-04-04T03:47:14.277Z,0.50
2023-04-04T03:49:41.443Z,0.30
2023-04-04T03:52:08.212Z,0.25
2023-04-04T03:54:35.106Z,0.30
2023-04-04T03:57:02.138Z,0.40
2023-04-04T03:59:29.506Z,0.50
2023-04-04T04:01:56.393Z,0.35
2023-04-04T04:04:23.311Z,0.50
2023-04-04T04:06:50.205Z,0.40
2023-04-04T04:09:17.152Z,0.40
2023-04-04T04:11:44.135Z,0.60
2023-04-04T04:14:10.945Z,0.52
2023-04-04T04:16:40.432Z,0.50
2023-04-04T04:19:07.247Z,0.57
2023-04-04T04:21:34.157Z,0.30
2023-04-04T04:24:01.021Z,0.30
2023-04-04T04:26:27.839Z,0.70
2023-04-04T04:28:54.656Z,0.60
2023-04-04T04:31:21.646Z,0.40
2023-04-04T04:33:48.787Z,0.50
2023-04-04T04:36:15.849Z,0.50
2023-04-04T04:38:42.891Z,0.60
2023-04-04T04:41:09.677Z,0.68
2023-04-04T04:43:37.264Z,0.50
2023-04-04T04:46:04.036Z,0.77
2023-04-04T04:48:30.895Z,0.70
2023-04-04T04:50:57.668Z,0.50
2023-04-04T04:53:24.540Z,0.50
2023-04-04T04:55:52.445Z,0.50
2023-04-04T04:58:24.686Z,0.63
2023-04-04T05:00:56.857Z,0.50
2023-04-04T05:03:23.918Z,0.50
2023-04-04T05:05:51.420Z,0.50
2023-04-04T05:08:18.838Z,0.80
2023-04-04T05:10:45.762Z,0.63
2023-04-04T05:13:14.027Z,0.70
2023-04-04T05:15:40.877Z,0.45
2023-04-04T05:18:07.796Z,0.60
2023-04-04T05:20:35.688Z,0.50
2023-04-04T05:23:02.510Z,0.40
2023-04-04T05:25:29.255Z,0.70
2023-04-04T05:27:57.733Z,0.63
2023-04-04T05:30:24.841Z,0.57
2023-04-04T05:32:52.712Z,0.90
2023-04-04T05:35:19.615Z,0.60
2023-04-04T05:37:46.630Z,0.70
2023-04-04T05:40:13.491Z,0.60
2023-04-04T05:42:40.293Z,0.60
2023-04-04T05:45:07.834Z,0.80
2023-04-04T05:47:34.719Z,0.85
2023-04-04T05:50:01.716Z,1.00
2023-04-04T05:52:28.486Z,1.10
2023-04-04T05:54:55.205Z,2.30
2023-04-04T05:57:23.422Z,1.85
2023-04-04T05:59:51.668Z,1.67
2023-04-04T06:02:18.621Z,2.10
2023-04-04T06:04:45.677Z,1.92
2023-04-04T06:07:12.548Z,1.48
2023-04-04T06:09:40.725Z,1.38
2023-04-04T06:12:09.224Z,1.55
2023-04-04T06:14:39.217Z,1.45
2023-04-04T06:17:06.875Z,1.40
2023-04-04T06:19:33.617Z,1.70
2023-04-04T06:22:00.675Z,1.45
2023-04-04T06:24:27.444Z,1.23
2023-04-04T06:26:54.307Z,1.20
2023-04-04T06:29:21.480Z,1.10
2023-04-04T06:31:49.757Z,1.20
2023-04-04T06:34:16.672Z,1.10
2023-04-04T06:36:43.493Z,1.35
2023-04-04T06:39:10.282Z,1.30
2023-04-04T06:41:37.138Z,0.90
2023-04-04T06:44:03.962Z,1.50
2023-04-04T06:46:33.262Z,1.98
2023-04-04T06:49:00.402Z,1.80
2023-04-04T06:51:27.701Z,1.30
2023-04-04T06:53:56.793Z,1.50
2023-04-04T06:56:24.053Z,1.23
2023-04-04T06:58:51.087Z,1.95
2023-04-04T07:01:17.979Z,1.60
2023-04-04T07:03:44.892Z,1.45
2023-04-04T07:06:11.741Z,1.30
2023-04-04T07:08:38.542Z,1.58
2023-04-04T07:11:06.533Z,1.63
2023-04-04T07:13:33.643Z,1.80
2023-04-04T07:16:00.745Z,1.30
2023-04-04T07:18:27.849Z,1.20
2023-04-04T07:20:54.571Z,1.35
2023-04-04T07:23:21.404Z,1.13
2023-04-04T07:25:48.133Z,1.00
2023-04-04T07:28:14.909Z,1.55
2023-04-04T07:30:41.867Z,1.27
2023-04-04T07:33:09.045Z,1.58
2023-04-04T07:35:36.556Z,1.50
2023-04-04T07:38:04.303Z,1.50
2023-04-04T07:40:31.904Z,1.52
2023-04-04T07:42:58.718Z,1.10
2023-04-04T07:45:25.629Z,1.20
2023-04-04T07:47:52.516Z,0.95
2023-04-04T07:50:19.431Z,1.00
2023-04-04T07:52:54.478Z,0.85
2023-04-04T07:55:21.712Z,1.10
2023-04-04T07:57:48.529Z,1.23
2023-04-04T08:00:17.621Z,1.15
2023-04-04T08:02:45.655Z,1.50
2023-04-04T08:05:12.577Z,1.20
2023-04-04T08:07:39.479Z,1.35
2023-04-04T08:10:07.413Z,1.30
2023-04-04T08:12:34.173Z,1.20
2023-04-04T08:15:01.985Z,1.00
2023-04-04T08:17:28.737Z,0.82
2023-04-04T08:19:55.922Z,0.73
2023-04-04T08:22:22.977Z,1.08
2023-04-04T08:24:49.786Z,1.52
2023-04-04T08:27:17.109Z,1.17
2023-04-04T08:29:45.534Z,1.17
2023-04-04T08:32:12.688Z,1.20
2023-04-04T08:34:39.968Z,1.20
2023-04-04T08:37:07.316Z,1.30
2023-04-04T08:39:34.425Z,1.33
2023-04-04T08:42:05.467Z,1.50
2023-04-04T08:44:34.713Z,1.20
2023-04-04T08:47:09.364Z,1.20
2023-04-04T08:49:41.243Z,1.10
2023-04-04T08:52:11.534Z,0.98
2023-04-04T08:54:41.516Z,1.13
2023-04-04T08:57:08.515Z,1.30
2023-04-04T08:59:35.924Z,1.58
2023-04-04T09:02:08.353Z,1.30
2023-04-04T09:04:35.606Z,1.40
2023-04-04T09:07:04.139Z,1.25
2023-04-04T09:09:34.388Z,1.17
2023-04-04T09:12:02.481Z,1.20
2023-04-04T09:14:33.438Z,1.15
2023-04-04T09:17:00.321Z,1.35
2023-04-04T09:19:27.673Z,1.38
2023-04-04T09:21:54.422Z,1.45
2023-04-04T09:24:21.187Z,1.30
2023-04-04T09:26:49.352Z,1.40
2023-04-04T09:29:21.943Z,1.60
2023-04-04T09:31:52.209Z,1.55
2023-04-04T09:34:20.467Z,1.58
2023-04-04T09:36:48.238Z,1.45
2023-04-04T09:39:20.243Z,1.10
2023-04-04T09:41:47.397Z,1.15
2023-04-04T09:44:14.515Z,1.58
2023-04-04T09:46:41.557Z,1.40
2023-04-04T09:49:13.561Z,1.60
2023-04-04T09:51:42.484Z,1.63
2023-04-04T09:54:28.869Z,1.38
2023-04-04T09:56:56.918Z,1.25
2023-04-04T09:59:24.734Z,1.50
2023-04-04T10:01:54.466Z,1.60
2023-04-04T10:04:21.739Z,1.52
2023-04-04T10:06:48.711Z,1.30
2023-04-04T10:09:16.311Z,1.17
2023-04-04T10:11:43.115Z,1.55
2023-04-04T10:14:09.991Z,1.27
2023-04-04T10:16:37.995Z,1.55
2023-04-04T10:19:09.367Z,1.30
2023-04-04T10:21:36.742Z,1.50
2023-04-04T10:24:09.260Z,1.30
2023-04-04T10:26:36.956Z,1.60
2023-04-04T10:29:05.888Z,1.42
2023-04-04T10:31:38.260Z,1.60
2023-04-04T10:34:19.818Z,1.40
2023-04-04T10:36:54.290Z,1.30
2023-04-04T10:39:26.162Z,1.40
2023-04-04T10:41:55.216Z,1.60
2023-04-04T10:44:40.641Z,1.35
2023-04-04T10:47:14.683Z,1.55
2023-04-04T10:49:45.066Z,1.42
2023-04-04T10:52:13.720Z,1.20
2023-04-04T10:54:44.043Z,1.30
2023-04-04T10:57:12.711Z,1.45
2023-04-04T10:59:59.145Z,1.88
2023-04-04T11:02:45.904Z,1.27
2023-04-04T11:05:13.782Z,1.50
2023-04-04T11:07:41.041Z,1.27
2023-04-04T11:10:16.530Z,1.60
2023-04-04T11:12:45.776Z,1.70
2023-04-04T11:15:14.536Z,1.50
2023-04-04T11:17:44.730Z,1.55
2023-04-04T11:20:12.120Z,1.65
2023-04-04T11:22:42.858Z,1.40
2023-04-04T11:25:25.127Z,1.52
2023-04-04T11:27:56.579Z,1.60
2023-04-04T11:30:24.173Z,1.27
2023-04-04T11:33:03.981Z,1.55
2023-04-04T11:35:33.695Z,2.38
2023-04-04T11:38:01.864Z,1.45
2023-04-04T11:40:41.927Z,1.58
2023-04-04T11:43:12.753Z,1.45
2023-04-04T11:45:46.434Z,1.40
2023-04-04T11:48:16.956Z,1.77
2023-04-04T11:50:50.001Z,2.00
2023-04-04T11:53:17.825Z,1.63
2023-04-04T11:55:48.224Z,1.50
2023-04-04T11:58:16.948Z,1.58
2023-04-04T12:00:44.788Z,1.40
2023-04-04T12:03:12.911Z,1.38
2023-04-04T12:05:43.238Z,1.77
2023-04-04T12:08:12.537Z,1.80
2023-04-04T12:10:41.077Z,1.60
2023-04-04T12:13:10.737Z,1.42
2023-04-04T12:15:38.442Z,1.60
2023-04-04T12:18:09.299Z,2.38
2023-04-04T12:20:41.177Z,1.80
2023-04-04T12:23:08.066Z,1.60
2023-04-04T12:25:39.354Z,1.30
2023-04-04T12:28:08.075Z,1.45
2023-04-04T12:30:35.213Z,1.38
2023-04-04T12:33:02.271Z,1.38
2023-04-04T12:35:30.998Z,1.90
2023-04-04T12:38:07.603Z,1.75
2023-04-04T12:40:37.482Z,1.33
2023-04-04T12:43:17.587Z,1.80
2023-04-04T12:45:44.876Z,1.80
2023-04-04T12:48:14.556Z,1.40
2023-04-04T12:50:53.065Z,1.67
2023-04-04T12:53:28.988Z,1.42
2023-04-04T12:56:02.629Z,1.85
2023-04-04T12:58:29.926Z,2.08
2023-04-04T13:01:00.831Z,2.38
2023-04-04T13:03:28.739Z,1.80
2023-04-04T13:05:55.651Z,1.40
2023-04-04T13:08:22.963Z,1.10
2023-04-04T13:11:04.870Z,1.40
2023-04-04T13:13:37.089Z,1.20
2023-04-04T13:16:09.023Z,1.23
2023-04-04T13:18:43.183Z,1.50
2023-04-04T13:21:13.259Z,1.42
2023-04-04T13:23:41.232Z,1.60
2023-04-04T13:26:09.588Z,1.60
2023-04-04T13:28:36.852Z,1.35
2023-04-04T13:31:08.446Z,1.40
2023-04-04T13:33:35.691Z,1.42
2023-04-04T13:36:02.484Z,1.55
2023-04-04T13:38:31.195Z,1.80
2023-04-04T13:40:58.979Z,1.30
2023-04-04T13:43:26.081Z,1.33
2023-04-04T13:45:53.469Z,1.17
2023-04-04T13:48:20.282Z,1.60
2023-04-04T13:50:51.401Z,1.00
2023-04-04T13:53:18.786Z,1.40
2023-04-04T13:58:20.120Z,1.10
2023-04-04T14:00:49.964Z,1.50
2023-04-04T14:03:17.959Z,1.70
2023-04-04T14:05:44.903Z,1.83
2023-04-04T14:08:11.800Z,1.77
2023-04-04T14:10:39.062Z,1.70
2023-04-04T14:13:06.371Z,1.40
2023-04-04T14:15:33.870Z,1.77
2023-04-04T14:18:01.803Z,1.88
2023-04-04T14:20:28.701Z,2.17
2023-04-04T14:22:55.506Z,1.98
2023-04-04T14:25:22.746Z,2.00
2023-04-04T14:27:49.575Z,1.80
2023-04-04T14:30:16.584Z,1.70
2023-04-04T14:32:44.160Z,1.73
2023-04-04T14:35:11.115Z,1.30
2023-04-04T14:37:37.990Z,1.20
2023-04-04T14:40:06.284Z,1.20
2023-04-04T14:42:33.508Z,1.10
2023-04-04T14:45:04.999Z,1.77
2023-04-04T14:47:32.300Z,1.85
2023-04-04T14:50:00.819Z,1.80
2023-04-04T14:52:31.356Z,1.42
2023-04-04T14:54:58.918Z,1.30
2023-04-04T14:57:26.430Z,1.20
2023-04-04T14:59:54.397Z,1.60
2023-04-04T15:02:22.241Z,1.42
2023-04-04T15:04:49.494Z,1.42
2023-04-04T15:07:17.538Z,1.10
2023-04-04T15:09:44.725Z,1.42
2023-04-04T15:12:12.021Z,1.30
2023-04-04T15:14:39.288Z,2.03
2023-04-04T15:17:06.898Z,1.85
2023-04-04T15:19:34.235Z,1.40
2023-04-04T15:22:01.709Z,1.33
2023-04-04T15:24:28.963Z,1.58
2023-04-04T15:26:57.766Z,1.30
2023-04-04T15:29:25.135Z,1.30
2023-04-04T15:31:52.733Z,1.25
2023-04-04T15:34:20.279Z,1.52
2023-04-04T15:36:47.904Z,1.52
2023-04-04T15:39:15.422Z,1.30
2023-04-04T15:41:42.608Z,1.10
2023-04-04T15:44:09.955Z,1.00
2023-04-04T15:46:37.307Z,0.93
2023-04-04T15:49:05.333Z,1.02
2023-04-04T15:51:32.670Z,1.20
2023-04-04T15:53:59.965Z,1.80
2023-04-04T15:56:27.896Z,1.33
2023-04-04T15:58:55.865Z,1.40
2023-04-04T16:01:23.508Z,1.80
2023-04-04T16:03:50.986Z,1.23
2023-04-04T16:06:18.265Z,0.90
2023-04-04T16:08:45.731Z,1.00
2023-04-04T16:11:12.983Z,1.00
2023-04-04T16:13:40.621Z,1.30
2023-04-04T16:16:07.986Z,1.73
2023-04-04T16:18:37.208Z,1.58
2023-04-04T16:21:04.721Z,1.45
2023-04-04T16:23:34.925Z,1.27
2023-04-04T16:26:02.205Z,1.50
2023-04-04T16:28:29.533Z,1.67
2023-04-04T16:30:56.851Z,2.03
2023-04-04T16:33:24.194Z,1.98
2023-04-04T16:35:51.647Z,1.38
2023-04-04T16:38:18.972Z,1.45
2023-04-04T16:40:46.292Z,1.27
2023-04-04T16:43:13.539Z,1.27
2023-04-04T16:45:41.419Z,1.85
2023-04-04T16:48:08.786Z,1.67
2023-04-04T16:50:36.115Z,1.70
2023-04-04T16:53:04.202Z,1.83
2023-04-04T16:55:31.435Z,1.23
2023-04-04T16:57:59.169Z,1.48
2023-04-04T17:00:26.667Z,1.98
2023-04-04T17:02:54.012Z,1.85
2023-04-04T17:05:21.367Z,1.52
2023-04-04T17:07:48.544Z,1.40
2023-04-04T17:10:16.064Z,1.77
2023-04-04T17:12:44.091Z,2.20
2023-04-04T17:15:12.045Z,1.88
2023-04-04T17:17:39.290Z,1.70
2023-04-04T17:20:07.358Z,2.25
2023-04-04T17:22:34.700Z,1.67
2023-04-04T17:25:02.454Z,1.60
2023-04-04T17:27:30.651Z,1.55
2023-04-04T17:29:58.131Z,1.90
2023-04-04T17:32:25.336Z,1.75
2023-04-04T17:34:52.660Z,1.80
2023-04-04T17:37:19.936Z,3.38
2023-04-04T17:39:47.336Z,2.47
2023-04-04T17:42:14.586Z,2.35
2023-04-04T17:44:41.922Z,2.30
2023-04-04T17:47:09.262Z,2.08
2023-04-04T17:49:36.653Z,2.10
2023-04-04T17:52:04.699Z,2.13
2023-04-04T17:54:32.058Z,1.45
2023-04-04T17:57:00.319Z,1.35
2023-04-04T17:59:27.927Z,1.02
2023-04-04T18:01:55.542Z,1.02
2023-04-04T18:04:23.908Z,1.00
2023-04-04T18:06:52.130Z,1.33
2023-04-04T18:09:19.429Z,1.00
2023-04-04T18:11:46.905Z,1.30
2023-04-04T18:14:14.252Z,1.00
2023-04-04T18:16:41.499Z,1.13
2023-04-04T18:19:11.823Z,1.00
2023-04-04T18:21:39.218Z,0.93
2023-04-04T18:24:07.931Z,1.00
2023-04-04T18:26:35.347Z,0.90
2023-04-04T18:29:02.577Z,0.80
2023-04-04T18:31:29.841Z,1.25
2023-04-04T18:33:57.078Z,0.80
2023-04-04T18:36:24.530Z,0.65
2023-04-04T18:38:51.889Z,0.75
2023-04-04T18:41:20.016Z,0.80
2023-04-04T18:43:46.901Z,0.90
2023-04-04T18:46:13.662Z,0.80
2023-04-04T18:48:41.473Z,0.70
2023-04-04T18:51:08.548Z,0.93
2023-04-04T18:53:35.708Z,1.00
2023-04-04T18:56:02.518Z,0.98
2023-04-04T18:58:29.335Z,0.80
2023-04-04T19:00:58.500Z,1.00
2023-04-04T19:03:26.493Z,0.88
2023-04-04T19:05:55.647Z,1.10
2023-04-04T19:08:24.093Z,1.05
2023-04-04T19:10:51.310Z,0.68
2023-04-04T19:13:18.453Z,0.80
2023-04-04T19:15:45.715Z,0.77
2023-04-04T19:18:12.824Z,0.75
2023-04-04T19:20:42.132Z,1.00
2023-04-04T19:23:09.299Z,0.82
2023-04-04T19:25:36.256Z,1.13
2023-04-04T19:28:03.548Z,0.80
2023-04-04T19:30:43.942Z,0.90
2023-04-04T19:33:16.769Z,1.00
2023-04-04T19:36:12.678Z,1.30
2023-04-04T19:38:40.772Z,1.27
2023-04-04T19:41:34.879Z,0.90
2023-04-04T19:44:03.054Z,1.17
2023-04-04T19:46:32.888Z,1.08
2023-04-04T19:49:01.824Z,0.80
2023-04-04T19:51:28.625Z,0.90
2023-04-04T19:54:00.601Z,1.15
2023-04-04T19:56:28.895Z,1.30
2023-04-04T19:59:01.159Z,1.45
2023-04-04T20:01:30.037Z,1.40
2023-04-04T20:03:58.009Z,1.20
2023-04-04T20:06:29.356Z,1.15
2023-04-04T20:09:01.756Z,1.00
2023-04-04T20:11:33.332Z,0.82
2023-04-04T20:14:01.722Z,1.10
2023-04-04T20:16:30.563Z,0.90
2023-04-04T20:19:00.736Z,0.88
2023-04-04T20:21:29.663Z,0.70
2023-04-04T20:23:58.951Z,1.00
2023-04-04T20:26:45.454Z,0.85
2023-04-04T20:29:17.118Z,1.45
2023-04-04T20:31:44.930Z,1.50
2023-04-04T20:34:33.803Z,1.00
2023-04-04T20:37:02.791Z,1.13
2023-04-04T20:39:41.528Z,1.30
2023-04-04T20:42:34.855Z,1.52
2023-04-04T20:45:11.170Z,1.63
2023-04-04T20:47:45.479Z,1.33
2023-04-04T20:50:20.904Z,1.20
2023-04-04T20:52:49.769Z,1.25
2023-04-04T20:55:21.077Z,1.02
2023-04-04T20:57:48.263Z,1.00
2023-04-04T21:00:31.243Z,0.95
2023-04-04T21:03:00.260Z,0.88
2023-04-04T21:05:36.361Z,0.82
2023-04-04T21:08:07.807Z,1.08
2023-04-04T21:10:37.335Z,1.00
2023-04-04T21:13:06.315Z,0.90
2023-04-04T21:15:39.229Z,0.80
2023-04-04T21:18:11.470Z,1.10
2023-04-04T21:20:47.542Z,0.88
2023-04-04T21:23:26.652Z,0.80
2023-04-04T21:26:30.278Z,0.60
2023-04-04T21:29:00.553Z,0.70
2023-04-04T21:31:35.153Z,1.05
2023-04-04T21:34:15.769Z,1.10
2023-04-04T21:36:44.091Z,1.10
2023-04-04T21:39:14.350Z,0.85
2023-04-04T21:41:43.599Z,0.80
2023-04-04T21:44:10.909Z,0.80
2023-04-04T21:46:40.609Z,1.08
2023-04-04T21:49:08.907Z,0.70
2023-04-04T21:51:36.745Z,0.77
2023-04-04T21:54:04.339Z,1.00
2023-04-04T21:56:33.996Z,1.13
2023-04-04T21:59:02.537Z,0.90
2023-04-04T22:01:33.250Z,1.13
2023-04-04T22:04:00.392Z,1.17
2023-04-04T22:06:27.835Z,1.50
2023-04-04T22:08:56.581Z,1.30
2023-04-04T22:11:26.111Z,1.20
2023-04-04T22:14:03.302Z,0.95
2023-04-04T22:16:31.340Z,1.10
2023-04-04T22:18:59.009Z,0.80
2023-04-04T22:21:26.016Z,1.20
2023-04-04T22:24:02.046Z,0.63
2023-04-04T22:26:32.505Z,0.82
2023-04-04T22:29:01.206Z,0.80
2023-04-04T22:31:28.832Z,0.75
2023-04-04T22:33:56.199Z,1.10
2023-04-04T22:36:24.473Z,1.08
2023-04-04T22:38:57.172Z,1.35
2023-04-04T22:41:29.351Z,1.30
2023-04-04T22:43:57.321Z,1.30
2023-04-04T22:46:25.620Z,1.10
2023-04-04T22:48:55.464Z,0.98
2023-04-04T22:51:22.672Z,0.82
2023-04-04T22:53:49.410Z,0.70
2023-04-04T22:56:16.211Z,0.60
2023-04-04T22:58:43.027Z,0.60
2023-04-04T23:01:09.837Z,0.60
2023-04-04T23:03:36.761Z,0.70
2023-04-04T23:06:03.629Z,0.55
2023-04-04T23:08:30.360Z,0.85
2023-04-04T23:10:57.127Z,0.70
2023-04-04T23:13:24.245Z,0.85
2023-04-04T23:15:51.068Z,1.10
2023-04-04T23:18:17.955Z,1.10
2023-04-04T23:20:44.777Z,1.30
2023-04-04T23:23:12.020Z,1.10
2023-04-04T23:25:38.868Z,0.88
2023-04-04T23:28:05.734Z,0.70
2023-04-04T23:30:32.493Z,1.00
2023-04-04T23:32:59.330Z,1.17
2023-04-04T23:35:26.452Z,1.55
2023-04-04T23:37:53.222Z,1.70
2023-04-04T23:40:20.007Z,1.33
2023-04-04T23:42:46.800Z,1.40
2023-04-04T23:45:14.622Z,1.80
2023-04-04T23:47:41.586Z,1.48
2023-04-04T23:50:08.869Z,1.55
2023-04-04T23:52:37.502Z,1.88
2023-04-04T23:55:04.973Z,1.45
2023-04-04T23:57:31.724Z,1.67
2023-04-04T23:59:58.488Z,1.52
